sensor_id;sensor_type;location;lat;lon;timestamp;P1;durP1;ratioP1;P2;durP2;ratioP2
43646;SDS011;56152;49.996;18.980;2022-11-20T09:21:17;218.70;;;111.53;;
43646;SDS011;56152;49.996;18.980;2022-11-20T09:26:19;284.03;;;144.90;;
43646;SDS011;56152;49.996;18.980;2022-11-20T09:31:21;259.07;;;135.90;;
43646;SDS011;56152;49.996;18.980;2022-11-20T09:36:27;243.93;;;123.70;;
43646;SDS011;56152;49.996;18.980;2022-11-20T09:41:35;201.33;;;100.47;;
43646;SDS011;56152;49.996;18.980;2022-11-20T09:47:02;162.50;;;84.63;;
43646;SDS011;56152;49.996;18.980;2022-11-20T09:52:13;216.57;;;110.70;;
43646;SDS011;56152;49.996;18.980;2022-11-20T09:57:23;168.07;;;88.80;;
43646;SDS011;56152;49.996;18.980;2022-11-20T10:02:35;171.67;;;91.20;;
43646;SDS011;56152;49.996;18.980;2022-11-20T10:07:46;171.07;;;87.07;;
43646;SDS011;56152;49.996;18.980;2022-11-20T10:12:58;164.67;;;81.20;;
43646;SDS011;56152;49.996;18.980;2022-11-20T10:18:13;170.20;;;87.13;;
43646;SDS011;56152;49.996;18.980;2022-11-20T10:23:30;191.00;;;99.97;;
43646;SDS011;56152;49.996;18.980;2022-11-20T10:29:02;188.50;;;97.13;;
43646;SDS011;56152;49.996;18.980;2022-11-20T10:34:15;181.50;;;97.77;;
43646;SDS011;56152;49.996;18.980;2022-11-20T10:39:24;164.50;;;86.40;;
43646;SDS011;56152;49.996;18.980;2022-11-20T10:44:32;165.33;;;78.83;;
43646;SDS011;56152;49.996;18.980;2022-11-20T10:49:55;134.37;;;76.90;;
43646;SDS011;56152;49.996;18.980;2022-11-20T10:55:05;92.30;;;48.50;;
43646;SDS011;56152;49.996;18.980;2022-11-20T11:00:14;82.57;;;42.77;;
43646;SDS011;56152;49.996;18.980;2022-11-20T11:05:20;85.63;;;42.50;;
43646;SDS011;56152;49.996;18.980;2022-11-20T11:10:35;69.83;;;34.60;;
43646;SDS011;56152;49.996;18.980;2022-11-20T11:15:41;119.10;;;43.37;;
43646;SDS011;56152;49.996;18.980;2022-11-20T11:20:49;88.47;;;37.47;;
43646;SDS011;56152;49.996;18.980;2022-11-20T11:25:57;64.83;;;34.73;;
43646;SDS011;56152;49.996;18.980;2022-11-20T11:31:01;52.17;;;27.07;;
43646;SDS011;56152;49.996;18.980;2022-11-20T11:36:16;56.67;;;27.30;;
43646;SDS011;56152;49.996;18.980;2022-11-20T11:41:25;45.90;;;24.60;;
43646;SDS011;56152;49.996;18.980;2022-11-20T11:46:32;109.38;;;36.03;;
43646;SDS011;56152;49.996;18.980;2022-11-20T11:51:38;76.53;;;34.60;;
43646;SDS011;56152;49.996;18.980;2022-11-20T11:56:54;127.53;;;42.03;;
43646;SDS011;56152;49.996;18.980;2022-11-20T12:02:01;98.27;;;44.40;;
43646;SDS011;56152;49.996;18.980;2022-11-20T12:07:14;107.17;;;52.60;;
43646;SDS011;56152;49.996;18.980;2022-11-20T12:12:27;99.10;;;43.03;;
43646;SDS011;56152;49.996;18.980;2022-11-20T12:17:37;97.40;;;40.03;;
43646;SDS011;56152;49.996;18.980;2022-11-20T12:22:42;86.23;;;36.37;;
43646;SDS011;56152;49.996;18.980;2022-11-20T12:27:56;79.90;;;38.90;;
43646;SDS011;56152;49.996;18.980;2022-11-20T12:38:28;86.07;;;42.63;;
43646;SDS011;56152;49.996;18.980;2022-11-20T12:43:50;104.83;;;41.67;;
43646;SDS011;56152;49.996;18.980;2022-11-20T12:49:22;92.83;;;42.43;;
43646;SDS011;56152;49.996;18.980;2022-11-20T12:54:36;87.47;;;45.17;;
43646;SDS011;56152;49.996;18.980;2022-11-20T13:00:11;90.20;;;40.90;;
43646;SDS011;56152;49.996;18.980;2022-11-20T13:05:19;254.17;;;90.03;;
43646;SDS011;56152;49.996;18.980;2022-11-20T13:10:27;68.57;;;33.63;;
43646;SDS011;56152;49.996;18.980;2022-11-20T13:15:42;126.77;;;46.90;;
43646;SDS011;56152;49.996;18.980;2022-11-20T13:20:51;94.30;;;42.70;;
43646;SDS011;56152;49.996;18.980;2022-11-20T13:26:05;77.20;;;39.70;;
43646;SDS011;56152;49.996;18.980;2022-11-20T13:31:31;77.90;;;39.97;;
43646;SDS011;56152;49.996;18.980;2022-11-20T13:36:35;82.93;;;40.90;;
43646;SDS011;56152;49.996;18.980;2022-11-20T13:41:37;94.60;;;44.67;;
43646;SDS011;56152;49.996;18.980;2022-11-20T13:46:46;97.23;;;43.10;;
43646;SDS011;56152;49.996;18.980;2022-11-20T13:51:49;107.80;;;45.90;;
43646;SDS011;56152;49.996;18.980;2022-11-20T13:56:56;99.23;;;49.30;;
43646;SDS011;56152;49.996;18.980;2022-11-20T14:02:12;82.03;;;44.47;;
43646;SDS011;56152;49.996;18.980;2022-11-20T14:07:20;78.70;;;35.97;;
43646;SDS011;56152;49.996;18.980;2022-11-20T14:12:35;88.97;;;43.00;;
43646;SDS011;56152;49.996;18.980;2022-11-20T14:17:39;93.17;;;45.90;;
43646;SDS011;56152;49.996;18.980;2022-11-20T14:22:49;74.20;;;36.00;;
43646;SDS011;56152;49.996;18.980;2022-11-20T14:27:52;95.13;;;50.20;;
43646;SDS011;56152;49.996;18.980;2022-11-20T14:33:00;75.43;;;37.07;;
43646;SDS011;56152;49.996;18.980;2022-11-20T14:38:04;66.53;;;32.87;;
43646;SDS011;56152;49.996;18.980;2022-11-20T14:43:21;61.13;;;32.73;;
43646;SDS011;56152;49.996;18.980;2022-11-20T14:48:29;73.33;;;40.33;;
43646;SDS011;56152;49.996;18.980;2022-11-20T14:53:33;56.27;;;29.90;;
43646;SDS011;56152;49.996;18.980;2022-11-20T14:58:36;72.37;;;39.60;;
43646;SDS011;56152;49.996;18.980;2022-11-20T15:03:41;71.63;;;39.37;;
43646;SDS011;56152;49.996;18.980;2022-11-20T15:08:50;105.20;;;53.10;;
43646;SDS011;56152;49.996;18.980;2022-11-20T15:13:53;69.00;;;37.43;;
43646;SDS011;56152;49.996;18.980;2022-11-20T15:18:58;75.23;;;43.00;;
43646;SDS011;56152;49.996;18.980;2022-11-20T15:24:01;121.10;;;69.97;;
43646;SDS011;56152;49.996;18.980;2022-11-20T15:29:09;164.60;;;85.80;;
43646;SDS011;56152;49.996;18.980;2022-11-20T15:34:15;99.83;;;50.47;;
43646;SDS011;56152;49.996;18.980;2022-11-20T15:39:17;132.40;;;67.33;;
43646;SDS011;56152;49.996;18.980;2022-11-20T15:44:20;143.63;;;77.27;;
43646;SDS011;56152;49.996;18.980;2022-11-20T15:49:25;84.70;;;44.47;;
43646;SDS011;56152;49.996;18.980;2022-11-20T15:54:27;131.50;;;60.07;;
43646;SDS011;56152;49.996;18.980;2022-11-20T15:59:30;200.80;;;92.33;;
43646;SDS011;56152;49.996;18.980;2022-11-20T16:04:36;128.00;;;64.07;;
43646;SDS011;56152;49.996;18.980;2022-11-20T16:09:40;129.93;;;65.90;;
43646;SDS011;56152;49.996;18.980;2022-11-20T16:14:43;144.20;;;72.20;;
43646;SDS011;56152;49.996;18.980;2022-11-20T16:20:09;143.20;;;67.90;;
43646;SDS011;56152;49.996;18.980;2022-11-20T16:25:13;146.38;;;66.85;;
43646;SDS011;56152;49.996;18.980;2022-11-20T16:30:15;191.83;;;96.17;;
43646;SDS011;56152;49.996;18.980;2022-11-20T16:35:20;149.57;;;73.73;;
43646;SDS011;56152;49.996;18.980;2022-11-20T16:40:23;201.40;;;96.90;;
43646;SDS011;56152;49.996;18.980;2022-11-20T16:45:25;167.67;;;76.30;;
43646;SDS011;56152;49.996;18.980;2022-11-20T16:50:31;265.57;;;112.97;;
43646;SDS011;56152;49.996;18.980;2022-11-20T16:55:33;163.93;;;76.97;;
43646;SDS011;56152;49.996;18.980;2022-11-20T17:00:36;100.97;;;53.63;;
43646;SDS011;56152;49.996;18.980;2022-11-20T17:05:40;248.50;;;109.73;;
43646;SDS011;56152;49.996;18.980;2022-11-20T17:10:44;197.60;;;95.83;;
43646;SDS011;56152;49.996;18.980;2022-11-20T17:15:47;187.23;;;88.70;;
43646;SDS011;56152;49.996;18.980;2022-11-20T17:20:52;248.07;;;114.80;;
43646;SDS011;56152;49.996;18.980;2022-11-20T17:26:02;258.90;;;120.50;;
43646;SDS011;56152;49.996;18.980;2022-11-20T17:31:07;270.80;;;123.63;;
43646;SDS011;56152;49.996;18.980;2022-11-20T17:36:15;171.57;;;79.70;;
43646;SDS011;56152;49.996;18.980;2022-11-20T17:41:20;191.43;;;91.50;;
43646;SDS011;56152;49.996;18.980;2022-11-20T17:46:25;93.23;;;45.70;;
43646;SDS011;56152;49.996;18.980;2022-11-20T17:51:33;67.03;;;34.03;;
43646;SDS011;56152;49.996;18.980;2022-11-20T17:56:36;66.70;;;33.20;;
43646;SDS011;56152;49.996;18.980;2022-11-20T18:01:55;54.08;;;28.45;;
43646;SDS011;56152;49.996;18.980;2022-11-20T18:07:00;68.03;;;35.07;;
43646;SDS011;56152;49.996;18.980;2022-11-20T18:12:04;56.87;;;30.80;;
43646;SDS011;56152;49.996;18.980;2022-11-20T18:17:08;66.10;;;34.13;;
43646;SDS011;56152;49.996;18.980;2022-11-20T18:22:14;62.20;;;32.73;;
43646;SDS011;56152;49.996;18.980;2022-11-20T18:27:19;95.30;;;48.37;;
43646;SDS011;56152;49.996;18.980;2022-11-20T18:32:23;64.50;;;32.40;;
43646;SDS011;56152;49.996;18.980;2022-11-20T18:37:26;65.37;;;34.60;;
43646;SDS011;56152;49.996;18.980;2022-11-20T18:42:28;60.43;;;33.17;;
43646;SDS011;56152;49.996;18.980;2022-11-20T18:47:47;66.73;;;33.97;;
43646;SDS011;56152;49.996;18.980;2022-11-20T18:52:52;52.27;;;28.60;;
43646;SDS011;56152;49.996;18.980;2022-11-20T18:57:56;55.20;;;29.93;;
43646;SDS011;56152;49.996;18.980;2022-11-20T19:02:58;57.07;;;28.37;;
43646;SDS011;56152;49.996;18.980;2022-11-20T19:08:04;70.97;;;31.63;;
43646;SDS011;56152;49.996;18.980;2022-11-20T19:13:06;83.53;;;36.30;;
43646;SDS011;56152;49.996;18.980;2022-11-20T19:18:09;95.23;;;37.87;;
43646;SDS011;56152;49.996;18.980;2022-11-20T19:23:15;92.10;;;43.37;;
43646;SDS011;56152;49.996;18.980;2022-11-20T19:28:20;86.30;;;39.73;;
43646;SDS011;56152;49.996;18.980;2022-11-20T19:33:22;94.27;;;43.53;;
43646;SDS011;56152;49.996;18.980;2022-11-20T19:38:26;80.50;;;39.30;;
43646;SDS011;56152;49.996;18.980;2022-11-20T19:43:28;74.83;;;39.13;;
43646;SDS011;56152;49.996;18.980;2022-11-20T19:48:30;73.80;;;38.37;;
43646;SDS011;56152;49.996;18.980;2022-11-20T19:53:35;68.30;;;35.97;;
43646;SDS011;56152;49.996;18.980;2022-11-20T19:58:40;88.93;;;42.77;;
43646;SDS011;56152;49.996;18.980;2022-11-20T20:03:42;76.57;;;40.07;;
43646;SDS011;56152;49.996;18.980;2022-11-20T20:08:52;94.97;;;45.37;;
43646;SDS011;56152;49.996;18.980;2022-11-20T20:19:01;79.60;;;37.27;;
43646;SDS011;56152;49.996;18.980;2022-11-20T20:24:08;96.90;;;46.20;;
43646;SDS011;56152;49.996;18.980;2022-11-20T20:29:31;85.07;;;41.13;;
43646;SDS011;56152;49.996;18.980;2022-11-20T20:34:33;86.27;;;39.40;;
43646;SDS011;56152;49.996;18.980;2022-11-20T20:39:38;107.33;;;47.10;;
43646;SDS011;56152;49.996;18.980;2022-11-20T20:44:39;99.17;;;48.20;;
43646;SDS011;56152;49.996;18.980;2022-11-20T20:49:59;114.67;;;50.47;;
43646;SDS011;56152;49.996;18.980;2022-11-20T20:55:06;133.43;;;61.37;;
43646;SDS011;56152;49.996;18.980;2022-11-20T21:00:10;97.23;;;49.30;;
43646;SDS011;56152;49.996;18.980;2022-11-20T21:05:32;93.43;;;44.63;;
43646;SDS011;56152;49.996;18.980;2022-11-20T21:10:37;75.70;;;39.47;;
43646;SDS011;56152;49.996;18.980;2022-11-20T21:15:42;92.63;;;43.40;;
43646;SDS011;56152;49.996;18.980;2022-11-20T21:20:47;74.60;;;37.83;;
43646;SDS011;56152;49.996;18.980;2022-11-20T21:26:08;68.22;;;36.28;;
43646;SDS011;56152;49.996;18.980;2022-11-20T21:31:11;76.57;;;35.83;;
43646;SDS011;56152;49.996;18.980;2022-11-20T21:36:15;100.23;;;48.20;;
43646;SDS011;56152;49.996;18.980;2022-11-20T21:41:20;77.33;;;37.97;;
43646;SDS011;56152;49.996;18.980;2022-11-20T21:46:23;104.47;;;46.80;;
43646;SDS011;56152;49.996;18.980;2022-11-20T21:51:27;122.03;;;57.00;;
43646;SDS011;56152;49.996;18.980;2022-11-20T21:56:32;122.30;;;53.77;;
43646;SDS011;56152;49.996;18.980;2022-11-20T22:01:35;73.37;;;37.87;;
43646;SDS011;56152;49.996;18.980;2022-11-20T22:06:37;76.10;;;39.20;;
43646;SDS011;56152;49.996;18.980;2022-11-20T22:11:48;68.80;;;35.07;;
43646;SDS011;56152;49.996;18.980;2022-11-20T22:16:53;60.40;;;31.07;;
43646;SDS011;56152;49.996;18.980;2022-11-20T22:21:56;52.13;;;28.20;;
43646;SDS011;56152;49.996;18.980;2022-11-20T22:27:00;41.43;;;23.27;;
43646;SDS011;56152;49.996;18.980;2022-11-20T22:32:03;44.97;;;24.33;;
43646;SDS011;56152;49.996;18.980;2022-11-20T22:37:05;50.53;;;26.63;;
43646;SDS011;56152;49.996;18.980;2022-11-20T22:42:17;47.97;;;26.27;;
43646;SDS011;56152;49.996;18.980;2022-11-20T22:47:19;51.20;;;27.57;;
43646;SDS011;56152;49.996;18.980;2022-11-20T22:52:21;52.77;;;28.77;;
43646;SDS011;56152;49.996;18.980;2022-11-20T22:57:24;45.57;;;25.37;;
43646;SDS011;56152;49.996;18.980;2022-11-20T23:02:26;53.30;;;27.73;;
43646;SDS011;56152;49.996;18.980;2022-11-20T23:07:28;47.13;;;26.03;;
43646;SDS011;56152;49.996;18.980;2022-11-20T23:12:33;46.90;;;24.53;;
43646;SDS011;56152;49.996;18.980;2022-11-20T23:17:36;50.23;;;26.50;;
43646;SDS011;56152;49.996;18.980;2022-11-20T23:22:43;47.27;;;24.57;;
43646;SDS011;56152;49.996;18.980;2022-11-20T23:27:47;41.43;;;21.97;;
43646;SDS011;56152;49.996;18.980;2022-11-20T23:32:49;39.07;;;21.50;;
43646;SDS011;56152;49.996;18.980;2022-11-20T23:37:51;40.63;;;22.23;;
43646;SDS011;56152;49.996;18.980;2022-11-20T23:43:04;42.03;;;21.83;;
43646;SDS011;56152;49.996;18.980;2022-11-20T23:48:15;38.20;;;20.07;;
43646;SDS011;56152;49.996;18.980;2022-11-20T23:53:20;44.10;;;21.80;;
43646;SDS011;56152;49.996;18.980;2022-11-20T23:58:25;48.27;;;25.50;;
